Philip, SD

2:02 AM MST on December 08, 2016 (GMT -0700)
Philip | | Change Station
Active Advisory: Wind Chill Advisory

Elev 2208 ft 44.05 °N, 101.60 °W | Updated 7 minutes ago

Clear
Clear
3 °F
Feels Like -16 °F
N
15
Wind Variable Wind from WNW

Today
High -- | Low -- °F
--% Chance of Precip.
Yesterday
High -- | Low -- °F
Precip. -- in
Pressure 30.72 in
Visibility 10.0 miles
Clouds Overcast 4800 ft
Windchill -16 °F
Dew Point -4 °F
Humidity 73%
Rainfall 0.00 in
Snow Depth Not available.
7:09 AM 4:08 PM
First Quarter, 61% visible
METAR KPHP 080855Z AUTO 30013KT 10SM OVC048 M16/M20 A3058 RMK AO2 SLP401 T11611200 53012
Pressure 30.72 in
Visibility 10.0 miles
Clouds Overcast 4800 ft
Windchill -16 °F
Dew Point -4 °F
Humidity 73%
Rainfall 0.00 in
Snow Depth Not available.
7:09 AM 4:08 PM
First Quarter, 61% visible
METAR KPHP 080855Z AUTO 30013KT 10SM OVC048 M16/M20 A3058 RMK AO2 SLP401 T11611200 53012

10-Day Weather Forecast

Almanac

Astronomy

Dec. 08, 2016 Rise Set
Actual Time
Civil Twilight
Nautical Twilight
Astronomical Twilight
Moon
Length of Visible Light
Length of Day
Tomorrow will be .
, % of the Moon is Illuminated

Today's Extremes

State Highs State Lows

Community

WunderPhotos

Upload Photos

1,956,259 photos uploaded!

WunderBlog® & News

Nearby

Air Quality

  Air Quality AQ Index Pollutant
Not available.

Snow Depth

Station Depth Elevation

Earthquake Activity

City Distance Mag. Time & Date
Minimum magnitude displayed is 2.5.

Coastal Water Temperatures

Place Temperature

Stations

Nearby Weather Stations

Station Location Temp. Windchill Dew Point Humidity Wind Precip. Elev Updated Type
                   

Watches & Warnings

Wind Chill Advisory
Issued: 8:30 PM CST Dec. 7, 2016 – National Weather Service

... Wind Chill Advisory remains in effect until 11 am MST /noon
CST/ Thursday...

* wind chill values will drop to as low as 25 below to 30 below
zero late this evening through Thursday morning... with the
lowest wind chills expected late tonight and early Thursday
morning.

Precautionary/preparedness actions...

A Wind Chill Advisory means that cold air and the wind will
combine to create low wind chills. Frost bite and hypothermia can
occur if precautions are not taken. Make sure you wear a hat and
gloves.



Hintz